sensor_id;sensor_type;location;lat;lon;timestamp;P1;durP1;ratioP1;P2;durP2;ratioP2
2570;SDS011;1295;51.130;6.732;2023-11-21T00:02:01;64.53;;;13.63;;
2570;SDS011;1295;51.130;6.732;2023-11-21T00:04:26;64.40;;;14.90;;
2570;SDS011;1295;51.130;6.732;2023-11-21T00:06:52;59.83;;;13.83;;
2570;SDS011;1295;51.130;6.732;2023-11-21T00:09:18;61.23;;;16.60;;
2570;SDS011;1295;51.130;6.732;2023-11-21T00:11:44;59.87;;;15.90;;
2570;SDS011;1295;51.130;6.732;2023-11-21T00:14:09;58.90;;;12.20;;
2570;SDS011;1295;51.130;6.732;2023-11-21T00:16:35;60.57;;;14.40;;
2570;SDS011;1295;51.130;6.732;2023-11-21T00:19:00;62.87;;;18.07;;
2570;SDS011;1295;51.130;6.732;2023-11-21T00:21:26;64.50;;;14.90;;
2570;SDS011;1295;51.130;6.732;2023-11-21T00:23:52;65.10;;;14.43;;
2570;SDS011;1295;51.130;6.732;2023-11-21T00:26:18;61.07;;;15.57;;
2570;SDS011;1295;51.130;6.732;2023-11-21T00:28:43;59.57;;;14.23;;
2570;SDS011;1295;51.130;6.732;2023-11-21T00:31:09;65.70;;;15.70;;
2570;SDS011;1295;51.130;6.732;2023-11-21T00:33:35;58.50;;;11.03;;
2570;SDS011;1295;51.130;6.732;2023-11-21T00:36:00;62.47;;;15.17;;
2570;SDS011;1295;51.130;6.732;2023-11-21T00:38:26;60.73;;;12.27;;
2570;SDS011;1295;51.130;6.732;2023-11-21T00:40:52;63.17;;;12.30;;
2570;SDS011;1295;51.130;6.732;2023-11-21T00:43:18;67.87;;;12.83;;
2570;SDS011;1295;51.130;6.732;2023-11-21T00:45:44;62.10;;;13.10;;
2570;SDS011;1295;51.130;6.732;2023-11-21T00:48:10;59.97;;;13.43;;
2570;SDS011;1295;51.130;6.732;2023-11-21T00:50:36;62.97;;;14.57;;
2570;SDS011;1295;51.130;6.732;2023-11-21T00:53:02;64.63;;;14.17;;
2570;SDS011;1295;51.130;6.732;2023-11-21T00:55:27;73.53;;;14.77;;
2570;SDS011;1295;51.130;6.732;2023-11-21T00:57:53;73.53;;;18.07;;
2570;SDS011;1295;51.130;6.732;2023-11-21T01:00:19;66.53;;;14.10;;
2570;SDS011;1295;51.130;6.732;2023-11-21T01:02:44;65.40;;;14.10;;
2570;SDS011;1295;51.130;6.732;2023-11-21T01:05:10;63.67;;;12.40;;
2570;SDS011;1295;51.130;6.732;2023-11-21T01:07:36;64.90;;;17.87;;
2570;SDS011;1295;51.130;6.732;2023-11-21T01:10:02;62.67;;;17.53;;
2570;SDS011;1295;51.130;6.732;2023-11-21T01:12:28;70.97;;;15.50;;
2570;SDS011;1295;51.130;6.732;2023-11-21T01:14:54;60.30;;;13.70;;
2570;SDS011;1295;51.130;6.732;2023-11-21T01:17:20;63.40;;;13.03;;
2570;SDS011;1295;51.130;6.732;2023-11-21T01:19:46;58.80;;;11.77;;
2570;SDS011;1295;51.130;6.732;2023-11-21T01:22:12;62.20;;;12.20;;
2570;SDS011;1295;51.130;6.732;2023-11-21T01:24:37;59.07;;;12.10;;
2570;SDS011;1295;51.130;6.732;2023-11-21T01:27:04;60.00;;;14.37;;
2570;SDS011;1295;51.130;6.732;2023-11-21T01:29:31;63.73;;;12.70;;
2570;SDS011;1295;51.130;6.732;2023-11-21T01:31:56;55.87;;;9.80;;
2570;SDS011;1295;51.130;6.732;2023-11-21T01:34:22;66.37;;;11.40;;
2570;SDS011;1295;51.130;6.732;2023-11-21T01:36:48;57.07;;;11.53;;
2570;SDS011;1295;51.130;6.732;2023-11-21T01:39:13;60.37;;;10.43;;
2570;SDS011;1295;51.130;6.732;2023-11-21T01:41:39;55.10;;;9.40;;
2570;SDS011;1295;51.130;6.732;2023-11-21T01:44:05;57.90;;;10.77;;
2570;SDS011;1295;51.130;6.732;2023-11-21T01:46:30;57.10;;;10.37;;
2570;SDS011;1295;51.130;6.732;2023-11-21T01:48:56;58.63;;;10.27;;
2570;SDS011;1295;51.130;6.732;2023-11-21T01:51:22;57.53;;;8.80;;
2570;SDS011;1295;51.130;6.732;2023-11-21T01:53:47;56.53;;;8.23;;
2570;SDS011;1295;51.130;6.732;2023-11-21T01:56:13;63.43;;;10.40;;
2570;SDS011;1295;51.130;6.732;2023-11-21T01:58:39;62.17;;;10.47;;
2570;SDS011;1295;51.130;6.732;2023-11-21T02:01:04;56.53;;;10.03;;
2570;SDS011;1295;51.130;6.732;2023-11-21T02:03:32;56.23;;;9.80;;
2570;SDS011;1295;51.130;6.732;2023-11-21T02:05:57;60.10;;;10.13;;
2570;SDS011;1295;51.130;6.732;2023-11-21T02:08:23;63.40;;;10.00;;
2570;SDS011;1295;51.130;6.732;2023-11-21T02:10:49;58.47;;;11.13;;
2570;SDS011;1295;51.130;6.732;2023-11-21T02:13:15;59.20;;;9.93;;
2570;SDS011;1295;51.130;6.732;2023-11-21T02:15:41;58.70;;;11.00;;
2570;SDS011;1295;51.130;6.732;2023-11-21T02:18:07;60.57;;;10.93;;
2570;SDS011;1295;51.130;6.732;2023-11-21T02:20:33;57.40;;;10.50;;
2570;SDS011;1295;51.130;6.732;2023-11-21T02:22:58;62.63;;;12.57;;
2570;SDS011;1295;51.130;6.732;2023-11-21T02:25:28;59.57;;;12.50;;
2570;SDS011;1295;51.130;6.732;2023-11-21T02:27:54;61.37;;;11.97;;
2570;SDS011;1295;51.130;6.732;2023-11-21T02:30:19;60.10;;;13.97;;
2570;SDS011;1295;51.130;6.732;2023-11-21T02:32:45;67.63;;;16.87;;
2570;SDS011;1295;51.130;6.732;2023-11-21T02:35:10;66.00;;;19.60;;
2570;SDS011;1295;51.130;6.732;2023-11-21T02:37:36;78.17;;;32.23;;
2570;SDS011;1295;51.130;6.732;2023-11-21T02:40:03;71.37;;;26.63;;
2570;SDS011;1295;51.130;6.732;2023-11-21T02:42:29;73.80;;;28.87;;
2570;SDS011;1295;51.130;6.732;2023-11-21T02:44:55;74.43;;;27.43;;
2570;SDS011;1295;51.130;6.732;2023-11-21T02:47:21;71.20;;;27.07;;
2570;SDS011;1295;51.130;6.732;2023-11-21T02:49:46;78.10;;;29.60;;
2570;SDS011;1295;51.130;6.732;2023-11-21T02:52:12;70.57;;;29.20;;
2570;SDS011;1295;51.130;6.732;2023-11-21T02:54:38;72.60;;;28.37;;
2570;SDS011;1295;51.130;6.732;2023-11-21T02:57:04;74.70;;;29.37;;
2570;SDS011;1295;51.130;6.732;2023-11-21T02:59:30;77.23;;;28.73;;
2570;SDS011;1295;51.130;6.732;2023-11-21T03:01:56;80.73;;;33.47;;
2570;SDS011;1295;51.130;6.732;2023-11-21T03:04:32;81.63;;;32.90;;
2570;SDS011;1295;51.130;6.732;2023-11-21T03:06:57;73.60;;;24.97;;
2570;SDS011;1295;51.130;6.732;2023-11-21T03:09:24;74.63;;;28.97;;
2570;SDS011;1295;51.130;6.732;2023-11-21T03:11:49;69.47;;;21.40;;
2570;SDS011;1295;51.130;6.732;2023-11-21T03:14:15;69.47;;;23.60;;
2570;SDS011;1295;51.130;6.732;2023-11-21T03:16:41;76.40;;;25.37;;
2570;SDS011;1295;51.130;6.732;2023-11-21T03:19:06;76.20;;;30.50;;
2570;SDS011;1295;51.130;6.732;2023-11-21T03:21:32;73.47;;;28.77;;
2570;SDS011;1295;51.130;6.732;2023-11-21T03:23:58;66.33;;;20.33;;
2570;SDS011;1295;51.130;6.732;2023-11-21T03:26:23;71.47;;;24.27;;
2570;SDS011;1295;51.130;6.732;2023-11-21T03:28:50;73.67;;;22.00;;
2570;SDS011;1295;51.130;6.732;2023-11-21T03:31:15;71.07;;;22.20;;
2570;SDS011;1295;51.130;6.732;2023-11-21T03:33:41;78.23;;;27.77;;
2570;SDS011;1295;51.130;6.732;2023-11-21T03:36:07;73.30;;;21.97;;
2570;SDS011;1295;51.130;6.732;2023-11-21T03:38:33;75.40;;;23.20;;
2570;SDS011;1295;51.130;6.732;2023-11-21T03:40:59;74.00;;;23.93;;
2570;SDS011;1295;51.130;6.732;2023-11-21T03:43:26;72.17;;;28.20;;
2570;SDS011;1295;51.130;6.732;2023-11-21T03:45:51;74.37;;;24.03;;
2570;SDS011;1295;51.130;6.732;2023-11-21T03:48:18;72.97;;;20.23;;
2570;SDS011;1295;51.130;6.732;2023-11-21T03:50:43;73.23;;;19.53;;
2570;SDS011;1295;51.130;6.732;2023-11-21T03:53:10;70.87;;;17.17;;
2570;SDS011;1295;51.130;6.732;2023-11-21T03:55:35;72.07;;;18.67;;
2570;SDS011;1295;51.130;6.732;2023-11-21T03:58:01;75.00;;;25.17;;
2570;SDS011;1295;51.130;6.732;2023-11-21T04:00:27;75.30;;;26.03;;
2570;SDS011;1295;51.130;6.732;2023-11-21T04:02:53;75.97;;;25.40;;
2570;SDS011;1295;51.130;6.732;2023-11-21T04:05:19;66.60;;;15.50;;
2570;SDS011;1295;51.130;6.732;2023-11-21T04:07:44;79.27;;;20.50;;
2570;SDS011;1295;51.130;6.732;2023-11-21T04:10:09;72.33;;;19.30;;
2570;SDS011;1295;51.130;6.732;2023-11-21T04:12:35;75.60;;;19.80;;
2570;SDS011;1295;51.130;6.732;2023-11-21T04:15:01;68.50;;;17.33;;
2570;SDS011;1295;51.130;6.732;2023-11-21T04:17:27;77.40;;;19.43;;
2570;SDS011;1295;51.130;6.732;2023-11-21T04:19:52;71.03;;;17.67;;
2570;SDS011;1295;51.130;6.732;2023-11-21T04:22:19;75.40;;;19.47;;
2570;SDS011;1295;51.130;6.732;2023-11-21T04:24:44;77.00;;;20.30;;
2570;SDS011;1295;51.130;6.732;2023-11-21T04:27:10;78.03;;;22.03;;
2570;SDS011;1295;51.130;6.732;2023-11-21T04:29:36;75.97;;;21.07;;
2570;SDS011;1295;51.130;6.732;2023-11-21T04:32:02;74.27;;;21.17;;
2570;SDS011;1295;51.130;6.732;2023-11-21T04:34:28;71.23;;;20.20;;
2570;SDS011;1295;51.130;6.732;2023-11-21T04:36:55;75.80;;;19.47;;
2570;SDS011;1295;51.130;6.732;2023-11-21T04:39:21;70.53;;;16.63;;
2570;SDS011;1295;51.130;6.732;2023-11-21T04:41:46;74.57;;;18.83;;
2570;SDS011;1295;51.130;6.732;2023-11-21T04:44:12;76.80;;;18.83;;
2570;SDS011;1295;51.130;6.732;2023-11-21T04:46:38;75.40;;;20.40;;
2570;SDS011;1295;51.130;6.732;2023-11-21T04:49:03;81.60;;;20.93;;
2570;SDS011;1295;51.130;6.732;2023-11-21T04:51:29;77.13;;;21.67;;
2570;SDS011;1295;51.130;6.732;2023-11-21T04:53:55;80.93;;;20.03;;
2570;SDS011;1295;51.130;6.732;2023-11-21T04:56:21;71.90;;;18.43;;
2570;SDS011;1295;51.130;6.732;2023-11-21T04:58:47;77.33;;;18.03;;
2570;SDS011;1295;51.130;6.732;2023-11-21T05:01:12;74.93;;;19.67;;
2570;SDS011;1295;51.130;6.732;2023-11-21T05:03:38;74.37;;;18.87;;
2570;SDS011;1295;51.130;6.732;2023-11-21T05:06:04;77.50;;;18.80;;
2570;SDS011;1295;51.130;6.732;2023-11-21T05:08:31;78.83;;;20.40;;
2570;SDS011;1295;51.130;6.732;2023-11-21T05:10:57;74.90;;;19.80;;
2570;SDS011;1295;51.130;6.732;2023-11-21T05:13:22;74.73;;;18.87;;
2570;SDS011;1295;51.130;6.732;2023-11-21T05:15:49;78.13;;;18.80;;
2570;SDS011;1295;51.130;6.732;2023-11-21T05:18:14;81.57;;;21.87;;
2570;SDS011;1295;51.130;6.732;2023-11-21T05:20:40;71.17;;;15.70;;
2570;SDS011;1295;51.130;6.732;2023-11-21T05:23:06;84.23;;;21.17;;
2570;SDS011;1295;51.130;6.732;2023-11-21T05:25:32;81.20;;;20.33;;
2570;SDS011;1295;51.130;6.732;2023-11-21T05:27:57;81.13;;;21.47;;
2570;SDS011;1295;51.130;6.732;2023-11-21T05:30:23;78.33;;;19.70;;
2570;SDS011;1295;51.130;6.732;2023-11-21T05:32:49;79.47;;;22.50;;
2570;SDS011;1295;51.130;6.732;2023-11-21T05:35:15;82.07;;;20.70;;
2570;SDS011;1295;51.130;6.732;2023-11-21T05:37:41;75.07;;;20.20;;
2570;SDS011;1295;51.130;6.732;2023-11-21T05:40:07;77.47;;;19.77;;
2570;SDS011;1295;51.130;6.732;2023-11-21T05:42:34;79.13;;;21.60;;
2570;SDS011;1295;51.130;6.732;2023-11-21T05:44:59;80.77;;;24.17;;
2570;SDS011;1295;51.130;6.732;2023-11-21T05:47:25;78.17;;;18.23;;
2570;SDS011;1295;51.130;6.732;2023-11-21T05:49:50;84.37;;;22.47;;
2570;SDS011;1295;51.130;6.732;2023-11-21T05:52:17;75.93;;;16.87;;
2570;SDS011;1295;51.130;6.732;2023-11-21T05:54:43;89.60;;;26.60;;
2570;SDS011;1295;51.130;6.732;2023-11-21T05:57:08;89.40;;;21.83;;
2570;SDS011;1295;51.130;6.732;2023-11-21T05:59:34;85.83;;;21.87;;
2570;SDS011;1295;51.130;6.732;2023-11-21T06:02:00;85.07;;;20.03;;
2570;SDS011;1295;51.130;6.732;2023-11-21T06:04:25;85.23;;;22.53;;
2570;SDS011;1295;51.130;6.732;2023-11-21T06:06:51;76.67;;;19.60;;
2570;SDS011;1295;51.130;6.732;2023-11-21T06:09:17;91.27;;;21.57;;
2570;SDS011;1295;51.130;6.732;2023-11-21T06:11:42;85.50;;;24.03;;
2570;SDS011;1295;51.130;6.732;2023-11-21T06:14:08;77.17;;;18.03;;
2570;SDS011;1295;51.130;6.732;2023-11-21T06:16:33;91.23;;;22.33;;
2570;SDS011;1295;51.130;6.732;2023-11-21T06:19:00;80.80;;;20.20;;
2570;SDS011;1295;51.130;6.732;2023-11-21T06:21:26;84.90;;;20.90;;
2570;SDS011;1295;51.130;6.732;2023-11-21T06:23:51;83.13;;;22.60;;
2570;SDS011;1295;51.130;6.732;2023-11-21T06:26:17;91.60;;;24.10;;
2570;SDS011;1295;51.130;6.732;2023-11-21T06:28:43;82.13;;;20.70;;
2570;SDS011;1295;51.130;6.732;2023-11-21T06:31:08;86.80;;;22.10;;
2570;SDS011;1295;51.130;6.732;2023-11-21T06:33:34;72.00;;;16.90;;
2570;SDS011;1295;51.130;6.732;2023-11-21T06:36:00;79.50;;;20.63;;
2570;SDS011;1295;51.130;6.732;2023-11-21T06:38:25;83.70;;;20.90;;
2570;SDS011;1295;51.130;6.732;2023-11-21T06:40:51;90.77;;;23.67;;
2570;SDS011;1295;51.130;6.732;2023-11-21T06:43:17;88.20;;;22.87;;
2570;SDS011;1295;51.130;6.732;2023-11-21T06:45:42;84.30;;;21.00;;
2570;SDS011;1295;51.130;6.732;2023-11-21T06:48:08;99.20;;;24.00;;
2570;SDS011;1295;51.130;6.732;2023-11-21T06:50:34;87.07;;;21.77;;
2570;SDS011;1295;51.130;6.732;2023-11-21T06:52:59;78.40;;;17.53;;
2570;SDS011;1295;51.130;6.732;2023-11-21T06:55:25;87.50;;;22.30;;
2570;SDS011;1295;51.130;6.732;2023-11-21T06:57:51;84.93;;;21.20;;
2570;SDS011;1295;51.130;6.732;2023-11-21T07:00:17;98.67;;;25.00;;
2570;SDS011;1295;51.130;6.732;2023-11-21T07:02:43;92.40;;;22.20;;
2570;SDS011;1295;51.130;6.732;2023-11-21T07:05:09;84.50;;;20.70;;
2570;SDS011;1295;51.130;6.732;2023-11-21T07:07:35;91.70;;;24.27;;
2570;SDS011;1295;51.130;6.732;2023-11-21T07:10:01;77.70;;;20.83;;
2570;SDS011;1295;51.130;6.732;2023-11-21T07:12:26;84.20;;;22.20;;
2570;SDS011;1295;51.130;6.732;2023-11-21T07:15:03;80.83;;;18.70;;
2570;SDS011;1295;51.130;6.732;2023-11-21T07:17:30;88.27;;;22.20;;
2570;SDS011;1295;51.130;6.732;2023-11-21T07:19:56;93.97;;;28.47;;
2570;SDS011;1295;51.130;6.732;2023-11-21T07:22:22;93.20;;;26.40;;
2570;SDS011;1295;51.130;6.732;2023-11-21T07:24:49;96.07;;;25.00;;
2570;SDS011;1295;51.130;6.732;2023-11-21T07:27:14;79.33;;;18.43;;
2570;SDS011;1295;51.130;6.732;2023-11-21T07:29:40;100.00;;;24.37;;
2570;SDS011;1295;51.130;6.732;2023-11-21T07:32:06;95.10;;;26.10;;
2570;SDS011;1295;51.130;6.732;2023-11-21T07:34:32;102.93;;;28.13;;
2570;SDS011;1295;51.130;6.732;2023-11-21T07:36:58;96.30;;;26.07;;
2570;SDS011;1295;51.130;6.732;2023-11-21T07:39:24;104.80;;;28.00;;
2570;SDS011;1295;51.130;6.732;2023-11-21T07:41:49;96.40;;;26.53;;
2570;SDS011;1295;51.130;6.732;2023-11-21T07:44:16;94.87;;;27.80;;
2570;SDS011;1295;51.130;6.732;2023-11-21T07:46:42;97.07;;;28.93;;
2570;SDS011;1295;51.130;6.732;2023-11-21T07:49:07;101.63;;;28.77;;
2570;SDS011;1295;51.130;6.732;2023-11-21T07:51:33;103.40;;;30.40;;
2570;SDS011;1295;51.130;6.732;2023-11-21T07:53:59;110.20;;;33.90;;
2570;SDS011;1295;51.130;6.732;2023-11-21T07:56:25;109.90;;;36.30;;
2570;SDS011;1295;51.130;6.732;2023-11-21T07:58:51;81.17;;;22.00;;
2570;SDS011;1295;51.130;6.732;2023-11-21T08:01:17;90.37;;;24.60;;
2570;SDS011;1295;51.130;6.732;2023-11-21T08:03:43;103.03;;;28.67;;
2570;SDS011;1295;51.130;6.732;2023-11-21T08:06:08;104.60;;;30.90;;
2570;SDS011;1295;51.130;6.732;2023-11-21T08:08:35;109.73;;;31.77;;
2570;SDS011;1295;51.130;6.732;2023-11-21T08:11:01;107.00;;;32.17;;
2570;SDS011;1295;51.130;6.732;2023-11-21T08:13:27;105.97;;;29.93;;
2570;SDS011;1295;51.130;6.732;2023-11-21T08:15:54;96.13;;;27.67;;
2570;SDS011;1295;51.130;6.732;2023-11-21T08:18:19;111.17;;;27.90;;
2570;SDS011;1295;51.130;6.732;2023-11-21T08:20:46;123.80;;;30.33;;
2570;SDS011;1295;51.130;6.732;2023-11-21T08:23:14;114.20;;;32.00;;
2570;SDS011;1295;51.130;6.732;2023-11-21T08:25:38;107.17;;;28.10;;
2570;SDS011;1295;51.130;6.732;2023-11-21T08:28:04;97.90;;;27.20;;
2570;SDS011;1295;51.130;6.732;2023-11-21T08:30:30;94.70;;;25.23;;
2570;SDS011;1295;51.130;6.732;2023-11-21T08:32:56;106.13;;;28.60;;
2570;SDS011;1295;51.130;6.732;2023-11-21T08:35:22;97.67;;;27.20;;
2570;SDS011;1295;51.130;6.732;2023-11-21T08:37:48;112.73;;;31.77;;
2570;SDS011;1295;51.130;6.732;2023-11-21T08:40:14;90.03;;;31.60;;
2570;SDS011;1295;51.130;6.732;2023-11-21T08:42:39;114.07;;;31.13;;
2570;SDS011;1295;51.130;6.732;2023-11-21T08:45:05;113.10;;;42.70;;
2570;SDS011;1295;51.130;6.732;2023-11-21T08:47:32;98.17;;;48.63;;
2570;SDS011;1295;51.130;6.732;2023-11-21T08:49:58;103.90;;;52.20;;
2570;SDS011;1295;51.130;6.732;2023-11-21T08:52:24;95.93;;;43.80;;
2570;SDS011;1295;51.130;6.732;2023-11-21T08:54:50;109.30;;;55.27;;
2570;SDS011;1295;51.130;6.732;2023-11-21T08:57:17;116.57;;;32.30;;
2570;SDS011;1295;51.130;6.732;2023-11-21T08:59:43;105.03;;;47.73;;
2570;SDS011;1295;51.130;6.732;2023-11-21T09:02:09;105.57;;;48.23;;
2570;SDS011;1295;51.130;6.732;2023-11-21T09:04:34;125.93;;;60.37;;
2570;SDS011;1295;51.130;6.732;2023-11-21T09:07:00;104.17;;;54.47;;
2570;SDS011;1295;51.130;6.732;2023-11-21T09:09:26;109.27;;;47.87;;
2570;SDS011;1295;51.130;6.732;2023-11-21T09:11:51;95.40;;;27.10;;
2570;SDS011;1295;51.130;6.732;2023-11-21T09:14:17;97.57;;;24.13;;
2570;SDS011;1295;51.130;6.732;2023-11-21T09:16:43;106.97;;;29.47;;
2570;SDS011;1295;51.130;6.732;2023-11-21T09:19:09;116.30;;;44.80;;
2570;SDS011;1295;51.130;6.732;2023-11-21T09:21:34;94.17;;;31.20;;
2570;SDS011;1295;51.130;6.732;2023-11-21T09:24:00;109.87;;;42.07;;
2570;SDS011;1295;51.130;6.732;2023-11-21T09:26:26;93.30;;;36.13;;
2570;SDS011;1295;51.130;6.732;2023-11-21T09:28:51;112.93;;;46.50;;
2570;SDS011;1295;51.130;6.732;2023-11-21T09:31:17;115.10;;;53.80;;
2570;SDS011;1295;51.130;6.732;2023-11-21T09:33:44;118.77;;;53.87;;
2570;SDS011;1295;51.130;6.732;2023-11-21T09:36:11;129.70;;;84.80;;
2570;SDS011;1295;51.130;6.732;2023-11-21T09:38:36;148.07;;;99.50;;
2570;SDS011;1295;51.130;6.732;2023-11-21T09:41:01;125.57;;;84.77;;
2570;SDS011;1295;51.130;6.732;2023-11-21T09:43:27;116.77;;;48.17;;
2570;SDS011;1295;51.130;6.732;2023-11-21T09:45:54;117.30;;;80.33;;
2570;SDS011;1295;51.130;6.732;2023-11-21T09:48:19;109.00;;;51.97;;
2570;SDS011;1295;51.130;6.732;2023-11-21T09:50:45;115.03;;;51.43;;
2570;SDS011;1295;51.130;6.732;2023-11-21T09:53:13;115.17;;;35.27;;
2570;SDS011;1295;51.130;6.732;2023-11-21T09:55:42;126.33;;;51.87;;
2570;SDS011;1295;51.130;6.732;2023-11-21T09:58:08;113.07;;;31.13;;
2570;SDS011;1295;51.130;6.732;2023-11-21T10:00:34;124.33;;;38.07;;
2570;SDS011;1295;51.130;6.732;2023-11-21T10:03:00;122.70;;;35.10;;
2570;SDS011;1295;51.130;6.732;2023-11-21T10:05:25;111.37;;;37.43;;
2570;SDS011;1295;51.130;6.732;2023-11-21T10:07:51;114.53;;;36.07;;
2570;SDS011;1295;51.130;6.732;2023-11-21T10:10:19;113.83;;;37.57;;
2570;SDS011;1295;51.130;6.732;2023-11-21T10:12:45;107.50;;;34.47;;
2570;SDS011;1295;51.130;6.732;2023-11-21T10:15:10;99.37;;;42.27;;
2570;SDS011;1295;51.130;6.732;2023-11-21T10:17:36;109.20;;;35.47;;
2570;SDS011;1295;51.130;6.732;2023-11-21T10:20:02;116.87;;;35.90;;
2570;SDS011;1295;51.130;6.732;2023-11-21T10:22:29;114.87;;;36.50;;
2570;SDS011;1295;51.130;6.732;2023-11-21T10:24:54;119.77;;;40.57;;
2570;SDS011;1295;51.130;6.732;2023-11-21T10:27:20;120.67;;;38.47;;
2570;SDS011;1295;51.130;6.732;2023-11-21T10:29:46;121.33;;;38.10;;
2570;SDS011;1295;51.130;6.732;2023-11-21T10:32:12;117.17;;;34.87;;
2570;SDS011;1295;51.130;6.732;2023-11-21T10:34:38;103.67;;;29.80;;
2570;SDS011;1295;51.130;6.732;2023-11-21T10:37:10;95.87;;;26.30;;
2570;SDS011;1295;51.130;6.732;2023-11-21T10:39:31;104.27;;;38.57;;
2570;SDS011;1295;51.130;6.732;2023-11-21T10:41:57;112.93;;;41.70;;
2570;SDS011;1295;51.130;6.732;2023-11-21T10:44:22;112.63;;;37.77;;
2570;SDS011;1295;51.130;6.732;2023-11-21T10:46:50;94.03;;;29.33;;
2570;SDS011;1295;51.130;6.732;2023-11-21T10:49:17;113.37;;;43.00;;
2570;SDS011;1295;51.130;6.732;2023-11-21T10:51:43;125.90;;;77.00;;
2570;SDS011;1295;51.130;6.732;2023-11-21T10:54:09;86.87;;;25.67;;
2570;SDS011;1295;51.130;6.732;2023-11-21T10:56:34;90.30;;;28.73;;
2570;SDS011;1295;51.130;6.732;2023-11-21T10:59:00;101.27;;;43.50;;
2570;SDS011;1295;51.130;6.732;2023-11-21T11:01:26;98.60;;;49.37;;
2570;SDS011;1295;51.130;6.732;2023-11-21T11:03:51;102.73;;;45.73;;
2570;SDS011;1295;51.130;6.732;2023-11-21T11:06:17;90.27;;;41.40;;
2570;SDS011;1295;51.130;6.732;2023-11-21T11:08:43;110.50;;;47.20;;
2570;SDS011;1295;51.130;6.732;2023-11-21T11:11:09;93.97;;;26.67;;
2570;SDS011;1295;51.130;6.732;2023-11-21T11:13:37;95.63;;;28.43;;
2570;SDS011;1295;51.130;6.732;2023-11-21T11:16:01;88.83;;;27.20;;
2570;SDS011;1295;51.130;6.732;2023-11-21T11:18:28;106.63;;;43.87;;
2570;SDS011;1295;51.130;6.732;2023-11-21T11:20:53;106.17;;;30.07;;
2570;SDS011;1295;51.130;6.732;2023-11-21T11:23:46;91.70;;;23.70;;
2570;SDS011;1295;51.130;6.732;2023-11-21T11:26:25;97.43;;;28.20;;
2570;SDS011;1295;51.130;6.732;2023-11-21T11:31:27;99.43;;;46.97;;
2570;SDS011;1295;51.130;6.732;2023-11-21T11:34:06;96.73;;;44.37;;
2570;SDS011;1295;51.130;6.732;2023-11-21T11:36:29;97.27;;;29.43;;
2570;SDS011;1295;51.130;6.732;2023-11-21T11:38:53;81.53;;;24.30;;
2570;SDS011;1295;51.130;6.732;2023-11-21T11:41:24;79.70;;;29.17;;
2570;SDS011;1295;51.130;6.732;2023-11-21T11:43:50;88.30;;;30.33;;
2570;SDS011;1295;51.130;6.732;2023-11-21T11:46:16;100.27;;;57.67;;
2570;SDS011;1295;51.130;6.732;2023-11-21T11:48:42;102.83;;;48.93;;
2570;SDS011;1295;51.130;6.732;2023-11-21T11:51:10;90.63;;;38.73;;
2570;SDS011;1295;51.130;6.732;2023-11-21T11:53:35;87.60;;;32.13;;
2570;SDS011;1295;51.130;6.732;2023-11-21T11:58:47;101.93;;;46.17;;
2570;SDS011;1295;51.130;6.732;2023-11-21T12:01:13;95.47;;;51.70;;
2570;SDS011;1295;51.130;6.732;2023-11-21T12:03:39;104.93;;;56.37;;
2570;SDS011;1295;51.130;6.732;2023-11-21T12:06:05;102.03;;;52.20;;
2570;SDS011;1295;51.130;6.732;2023-11-21T12:08:31;87.80;;;34.63;;
2570;SDS011;1295;51.130;6.732;2023-11-21T12:10:57;85.90;;;24.80;;
2570;SDS011;1295;51.130;6.732;2023-11-21T12:13:23;91.07;;;33.40;;
2570;SDS011;1295;51.130;6.732;2023-11-21T12:15:48;101.67;;;55.43;;
2570;SDS011;1295;51.130;6.732;2023-11-21T12:18:14;112.17;;;50.67;;
2570;SDS011;1295;51.130;6.732;2023-11-21T12:20:40;110.23;;;32.00;;
2570;SDS011;1295;51.130;6.732;2023-11-21T12:23:05;98.73;;;30.97;;
2570;SDS011;1295;51.130;6.732;2023-11-21T12:25:31;93.10;;;30.20;;
2570;SDS011;1295;51.130;6.732;2023-11-21T12:27:57;99.60;;;23.67;;
2570;SDS011;1295;51.130;6.732;2023-11-21T12:30:23;108.77;;;36.73;;
2570;SDS011;1295;51.130;6.732;2023-11-21T12:32:50;96.43;;;45.93;;
2570;SDS011;1295;51.130;6.732;2023-11-21T12:35:16;93.87;;;43.93;;
2570;SDS011;1295;51.130;6.732;2023-11-21T12:37:41;95.00;;;52.53;;
2570;SDS011;1295;51.130;6.732;2023-11-21T12:40:09;94.07;;;26.10;;
2570;SDS011;1295;51.130;6.732;2023-11-21T12:42:35;116.13;;;64.90;;
2570;SDS011;1295;51.130;6.732;2023-11-21T12:45:06;88.23;;;35.90;;
2570;SDS011;1295;51.130;6.732;2023-11-21T12:47:33;96.97;;;50.63;;
2570;SDS011;1295;51.130;6.732;2023-11-21T12:49:57;91.30;;;36.50;;
2570;SDS011;1295;51.130;6.732;2023-11-21T12:52:23;85.80;;;40.80;;
2570;SDS011;1295;51.130;6.732;2023-11-21T12:54:49;96.17;;;42.07;;
2570;SDS011;1295;51.130;6.732;2023-11-21T12:57:14;101.03;;;46.97;;
2570;SDS011;1295;51.130;6.732;2023-11-21T12:59:40;113.77;;;52.83;;
2570;SDS011;1295;51.130;6.732;2023-11-21T13:02:06;108.33;;;35.53;;
2570;SDS011;1295;51.130;6.732;2023-11-21T13:04:32;92.37;;;35.93;;
2570;SDS011;1295;51.130;6.732;2023-11-21T13:07:02;97.87;;;33.40;;
2570;SDS011;1295;51.130;6.732;2023-11-21T13:09:23;106.63;;;52.87;;
2570;SDS011;1295;51.130;6.732;2023-11-21T13:11:48;102.53;;;46.37;;
2570;SDS011;1295;51.130;6.732;2023-11-21T13:14:14;100.17;;;39.70;;
2570;SDS011;1295;51.130;6.732;2023-11-21T13:16:40;97.10;;;51.50;;
2570;SDS011;1295;51.130;6.732;2023-11-21T13:19:05;104.83;;;38.50;;
2570;SDS011;1295;51.130;6.732;2023-11-21T13:21:31;84.23;;;35.90;;
2570;SDS011;1295;51.130;6.732;2023-11-21T13:23:57;90.80;;;39.87;;
2570;SDS011;1295;51.130;6.732;2023-11-21T13:26:23;91.43;;;40.17;;
2570;SDS011;1295;51.130;6.732;2023-11-21T13:28:49;106.40;;;38.97;;
2570;SDS011;1295;51.130;6.732;2023-11-21T13:31:14;113.77;;;33.30;;
2570;SDS011;1295;51.130;6.732;2023-11-21T13:33:47;110.10;;;57.57;;
2570;SDS011;1295;51.130;6.732;2023-11-21T13:36:11;95.57;;;43.50;;
2570;SDS011;1295;51.130;6.732;2023-11-21T13:38:37;90.17;;;40.87;;
2570;SDS011;1295;51.130;6.732;2023-11-21T13:41:03;96.60;;;42.63;;
2570;SDS011;1295;51.130;6.732;2023-11-21T13:43:29;105.80;;;54.17;;
2570;SDS011;1295;51.130;6.732;2023-11-21T13:45:54;103.13;;;40.93;;
2570;SDS011;1295;51.130;6.732;2023-11-21T13:48:21;96.77;;;35.10;;
2570;SDS011;1295;51.130;6.732;2023-11-21T13:50:46;91.50;;;42.00;;
2570;SDS011;1295;51.130;6.732;2023-11-21T13:53:14;88.03;;;39.87;;
2570;SDS011;1295;51.130;6.732;2023-11-21T13:55:42;104.90;;;37.20;;
2570;SDS011;1295;51.130;6.732;2023-11-21T13:58:07;99.57;;;32.20;;
2570;SDS011;1295;51.130;6.732;2023-11-21T14:00:33;93.57;;;25.07;;
2570;SDS011;1295;51.130;6.732;2023-11-21T14:03:05;94.57;;;38.73;;
2570;SDS011;1295;51.130;6.732;2023-11-21T14:05:30;94.57;;;40.57;;
2570;SDS011;1295;51.130;6.732;2023-11-21T14:07:57;105.40;;;59.80;;
2570;SDS011;1295;51.130;6.732;2023-11-21T14:10:23;107.17;;;59.53;;
2570;SDS011;1295;51.130;6.732;2023-11-21T14:12:48;87.03;;;35.43;;
2570;SDS011;1295;51.130;6.732;2023-11-21T14:15:14;103.13;;;44.00;;
2570;SDS011;1295;51.130;6.732;2023-11-21T14:17:40;101.37;;;43.67;;
2570;SDS011;1295;51.130;6.732;2023-11-21T14:20:06;98.17;;;34.07;;
2570;SDS011;1295;51.130;6.732;2023-11-21T14:22:32;93.13;;;39.93;;
2570;SDS011;1295;51.130;6.732;2023-11-21T14:24:58;87.03;;;32.47;;
2570;SDS011;1295;51.130;6.732;2023-11-21T14:27:24;97.13;;;26.80;;
2570;SDS011;1295;51.130;6.732;2023-11-21T14:29:50;97.33;;;31.37;;
2570;SDS011;1295;51.130;6.732;2023-11-21T14:32:16;93.07;;;49.53;;
2570;SDS011;1295;51.130;6.732;2023-11-21T14:34:42;92.03;;;43.00;;
2570;SDS011;1295;51.130;6.732;2023-11-21T14:37:07;89.80;;;29.57;;
2570;SDS011;1295;51.130;6.732;2023-11-21T14:39:33;92.70;;;27.27;;
2570;SDS011;1295;51.130;6.732;2023-11-21T14:41:59;82.13;;;22.67;;
2570;SDS011;1295;51.130;6.732;2023-11-21T14:44:24;112.03;;;47.13;;